Seraing, Belgium
Current Conditions -  °F | °C
As of 4:50 PM on Friday 19 Dec 2014 (Local Time) from EBLG Reporting Station
Broken Clouds Broken Clouds  
Wind Chill: 40°   Ceiling: 2100
Heat Index: 45°   Visibility: 6mi
Dew Point: 41°   Wind: 9mph
Humidity: 87%   Direction: 290°WNW
Pressure: 30"   Gusts: NA
Location:  50.59°N, 5.52°E
Report Text: EBLG 191550Z 29008KT 260V320 9999 BKN021 07/05 Q1016 NOSIG
Loading
Personal Weather Stations






























Interactive Weather Map New forecast layout! Learn more

10-Day Weather Forecast

Advertisements
Track Severe Weather on mobile